Time;durP1;ratioP1;P1;durP2;ratioP2;P2;SDS_P1;SDS_P2;PMS_P1;PMS_P2;Temp;Humidity;BMP_temperature;BMP_pressure;BME280_temperature;BME280_humidity;BME280_pressure;Samples;Min_cycle;Max_cycle;Signal;HPM_P1;HPM_P2
2022/03/01 00:01:58;;;;;;;3.83;1.50;;;2.40;99.90;;;;;;5020873;28;20119;-77
2022/03/01 00:04:24;;;;;;;2.95;1.10;;;2.30;99.90;;;;;;5020845;28;20033;-78
2022/03/01 00:06:50;;;;;;;4.10;1.60;;;2.20;99.90;;;;;;5021579;28;20041;-77
2022/03/01 00:09:16;;;;;;;5.30;1.55;;;2.20;99.90;;;;;;5035904;28;20056;-77
2022/03/01 00:11:42;;;;;;;4.53;1.50;;;2.20;99.90;;;;;;5019508;28;20060;-77
2022/03/01 00:14:08;;;;;;;3.22;1.52;;;2.20;99.90;;;;;;5036587;28;20037;-77
2022/03/01 00:16:34;;;;;;;4.20;1.85;;;2.20;99.90;;;;;;5035844;28;20037;-77
2022/03/01 00:18:59;;;;;;;5.13;1.77;;;2.10;99.90;;;;;;5020898;28;20116;-77
2022/03/01 00:21:28;;;;;;;5.55;1.67;;;2.00;99.90;;;;;;5018965;28;20029;-78
2022/03/01 00:23:54;;;;;;;3.20;1.23;;;2.10;99.90;;;;;;5016392;28;20041;-76
2022/03/01 00:26:19;;;;;;;5.35;1.70;;;2.10;99.90;;;;;;5035055;28;20520;-77
2022/03/01 00:28:45;;;;;;;3.80;1.58;;;2.20;99.90;;;;;;5019991;28;20390;-76
2022/03/01 00:31:11;;;;;;;3.83;1.60;;;2.10;99.90;;;;;;5020181;28;20033;-76
2022/03/01 00:33:36;;;;;;;3.95;1.55;;;2.10;99.90;;;;;;5019001;28;20029;-76
2022/03/01 00:36:02;;;;;;;4.07;1.35;;;2.10;99.90;;;;;;5019778;28;20037;-77
2022/03/01 00:38:28;;;;;;;4.47;2.58;;;2.10;99.90;;;;;;5034834;28;20052;-77
2022/03/01 00:40:54;;;;;;;2.83;0.95;;;2.20;99.90;;;;;;5020025;28;20485;-76
2022/03/01 00:43:21;;;;;;;4.97;1.42;;;2.20;99.90;;;;;;5015137;28;20041;-77
2022/03/01 00:45:47;;;;;;;3.20;1.30;;;2.20;99.90;;;;;;5019661;28;20053;-77
2022/03/01 00:48:13;;;;;;;3.53;1.60;;;2.20;99.90;;;;;;5018470;28;20029;-76
2022/03/01 00:50:38;;;;;;;3.95;2.05;;;2.30;99.90;;;;;;5025044;28;20471;-77
2022/03/01 00:53:05;;;;;;;5.13;1.98;;;2.40;99.90;;;;;;5020023;28;20064;-77
2022/03/01 00:55:30;;;;;;;4.93;2.35;;;2.30;99.90;;;;;;5018680;28;20029;-77
2022/03/01 00:57:56;;;;;;;4.72;1.90;;;2.20;99.90;;;;;;5020127;28;20639;-78
2022/03/01 01:00:21;;;;;;;4.00;1.52;;;2.10;99.90;;;;;;4999885;28;20088;-78
2022/03/01 01:02:48;;;;;;;3.60;1.67;;;1.90;99.90;;;;;;5020005;28;20029;-77
2022/03/01 01:05:14;;;;;;;3.80;1.83;;;1.90;99.90;;;;;;5018050;28;20111;-76
2022/03/01 01:07:40;;;;;;;3.13;1.10;;;1.80;99.90;;;;;;5025691;28;20025;-77
2022/03/01 01:10:06;;;;;;;3.03;1.55;;;1.80;99.90;;;;;;5025647;28;20044;-76
2022/03/01 01:12:33;;;;;;;3.72;1.33;;;1.80;99.90;;;;;;5034810;28;20021;-77
2022/03/01 01:14:59;;;;;;;2.95;1.40;;;1.80;99.90;;;;;;5019494;28;20068;-76
2022/03/01 01:17:24;;;;;;;2.83;1.10;;;1.80;99.90;;;;;;5020012;28;20465;-77
2022/03/01 01:19:50;;;;;;;4.35;2.00;;;1.80;99.90;;;;;;5018089;28;20048;-77
2022/03/01 01:25:01;;;;;;;3.42;1.35;;;1.80;99.90;;;;;;5019532;28;20083;-77
2022/03/01 01:27:27;;;;;;;3.33;1.40;;;1.80;99.90;;;;;;5035518;28;20040;-76
2022/03/01 01:29:53;;;;;;;4.00;2.03;;;1.90;99.90;;;;;;5018874;28;20485;-79
2022/03/01 01:32:19;;;;;;;3.65;1.38;;;2.00;99.90;;;;;;5035234;28;20134;-76
2022/03/01 01:34:44;;;;;;;3.10;1.30;;;1.90;99.90;;;;;;5018893;28;20029;-79
2022/03/01 01:37:10;;;;;;;5.00;1.92;;;2.00;99.90;;;;;;5016102;28;20490;-76
2022/03/01 01:39:36;;;;;;;4.40;1.83;;;2.00;99.90;;;;;;5019540;28;20021;-76
2022/03/01 01:42:02;;;;;;;4.18;1.60;;;2.10;99.90;;;;;;5012011;28;20489;-77
2022/03/01 01:44:31;;;;;;;4.10;1.88;;;2.10;99.90;;;;;;5018199;28;20033;-76
2022/03/01 01:46:57;;;;;;;4.53;1.83;;;2.10;99.90;;;;;;5017183;28;20057;-76
2022/03/01 01:49:22;;;;;;;3.50;1.45;;;2.00;99.90;;;;;;5019359;28;20424;-77
2022/03/01 01:51:48;;;;;;;3.70;1.42;;;2.00;99.90;;;;;;5017594;28;20032;-76
2022/03/01 01:54:14;;;;;;;2.75;1.27;;;2.00;99.90;;;;;;5019394;28;20379;-76
2022/03/01 01:56:40;;;;;;;4.72;1.50;;;2.00;99.90;;;;;;5015716;28;20056;-76
2022/03/01 01:59:05;;;;;;;4.70;2.00;;;2.00;99.90;;;;;;5017272;28;20497;-77
2022/03/01 02:01:32;;;;;;;5.00;2.08;;;1.90;99.90;;;;;;5019069;28;20580;-76
2022/03/01 02:03:59;;;;;;;4.30;1.95;;;2.10;99.90;;;;;;5019152;28;20068;-76
2022/03/01 02:06:26;;;;;;;5.07;2.20;;;2.00;99.90;;;;;;5017615;28;20053;-77
2022/03/01 02:08:52;;;;;;;4.25;2.28;;;2.10;99.90;;;;;;5019146;28;20021;-76
2022/03/01 02:11:17;;;;;;;5.20;2.00;;;2.00;99.90;;;;;;5015777;28;20674;-78
2022/03/01 02:13:43;;;;;;;3.95;1.88;;;2.00;99.90;;;;;;5032865;28;20474;-78
2022/03/01 02:16:09;;;;;;;4.10;1.90;;;2.10;99.90;;;;;;5018695;28;20441;-76
2022/03/01 02:18:35;;;;;;;5.60;2.42;;;2.00;99.90;;;;;;5018579;28;20029;-76
2022/03/01 02:21:01;;;;;;;4.65;1.58;;;2.10;99.90;;;;;;5000910;28;20033;-76
2022/03/01 02:23:27;;;;;;;3.85;2.15;;;1.90;99.90;;;;;;5016918;28;20025;-76
2022/03/01 02:25:53;;;;;;;4.45;1.92;;;1.70;99.90;;;;;;5016241;28;20129;-76
2022/03/01 02:28:18;;;;;;;3.70;1.67;;;1.60;99.90;;;;;;5016729;28;20037;-78
2022/03/01 02:30:44;;;;;;;3.50;1.60;;;1.60;99.90;;;;;;5019364;28;20025;-76
2022/03/01 02:33:10;;;;;;;3.20;1.10;;;1.70;99.90;;;;;;5031619;28;20125;-76
2022/03/01 02:35:35;;;;;;;3.35;1.60;;;1.70;99.90;;;;;;5014290;28;20127;-77
2022/03/01 02:38:01;;;;;;;3.53;1.00;;;1.70;99.90;;;;;;5017411;28;20044;-77
2022/03/01 02:40:26;;;;;;;3.13;1.50;;;1.80;99.90;;;;;;5017401;28;20617;-77
2022/03/01 02:42:52;;;;;;;4.18;1.38;;;1.70;99.90;;;;;;5022617;28;20031;-76
2022/03/01 02:45:19;;;;;;;3.67;1.50;;;1.70;99.90;;;;;;5018834;28;20025;-76
2022/03/01 02:47:45;;;;;;;3.63;1.45;;;1.70;99.90;;;;;;5016031;28;20092;-77
2022/03/01 02:50:12;;;;;;;4.13;1.55;;;1.70;99.90;;;;;;5017481;28;21951;-76
2022/03/01 02:52:38;;;;;;;4.05;1.52;;;1.70;99.90;;;;;;5018509;28;20116;-77
2022/03/01 02:55:05;;;;;;;3.15;1.27;;;1.70;99.90;;;;;;4993440;28;20386;-76
2022/03/01 02:57:31;;;;;;;2.95;1.13;;;1.60;99.90;;;;;;5017313;28;20033;-76
2022/03/01 02:59:56;;;;;;;3.63;1.30;;;1.60;99.90;;;;;;5017749;28;20150;-77
2022/03/01 03:02:22;;;;;;;3.78;1.52;;;1.60;99.90;;;;;;5015048;28;20052;-78
2022/03/01 03:04:48;;;;;;;4.35;1.30;;;1.60;99.90;;;;;;5019889;28;20040;-77
2022/03/01 03:07:14;;;;;;;4.65;1.73;;;1.70;99.90;;;;;;5018323;28;20042;-78
2022/03/01 03:09:40;;;;;;;4.32;2.10;;;1.70;99.90;;;;;;5020845;28;20862;-77
2022/03/01 03:12:06;;;;;;;4.07;1.75;;;1.70;99.90;;;;;;5021122;28;20029;-76
2022/03/01 03:14:32;;;;;;;3.88;1.85;;;1.60;99.90;;;;;;5018848;28;20037;-76
2022/03/01 03:16:58;;;;;;;3.60;1.55;;;1.60;99.90;;;;;;5021644;28;20114;-76
2022/03/01 03:19:24;;;;;;;5.20;2.10;;;1.50;99.90;;;;;;5021870;28;20072;-76
2022/03/01 03:21:50;;;;;;;3.80;1.70;;;1.50;99.90;;;;;;5021523;28;20060;-77
2022/03/01 03:24:16;;;;;;;4.35;1.65;;;1.50;99.90;;;;;;5022111;28;20056;-76
2022/03/01 03:26:42;;;;;;;4.47;1.90;;;1.50;99.90;;;;;;5020600;28;20051;-76
2022/03/01 03:29:09;;;;;;;3.88;1.50;;;1.40;99.90;;;;;;5022115;28;20033;-77
2022/03/01 03:31:36;;;;;;;6.45;1.80;;;1.40;99.90;;;;;;5022310;28;20060;-77
2022/03/01 03:34:03;;;;;;;3.85;1.80;;;1.40;99.90;;;;;;5021198;28;20061;-76
2022/03/01 03:36:29;;;;;;;3.58;1.60;;;1.30;99.90;;;;;;5021236;28;20025;-77
2022/03/01 03:38:55;;;;;;;4.15;1.45;;;1.20;99.90;;;;;;5035618;28;20053;-76
2022/03/01 03:41:20;;;;;;;3.67;1.45;;;1.20;99.90;;;;;;5021415;28;20802;-78
2022/03/01 03:43:46;;;;;;;3.92;1.92;;;1.20;99.90;;;;;;5017697;28;20033;-76
2022/03/01 03:46:11;;;;;;;4.00;1.70;;;1.10;99.90;;;;;;5027212;28;20136;-77
2022/03/01 03:48:37;;;;;;;4.80;2.35;;;1.10;99.90;;;;;;5019105;28;20031;-76
2022/03/01 03:51:03;;;;;;;5.45;1.85;;;1.10;99.90;;;;;;5020647;28;20052;-77
2022/03/01 03:53:28;;;;;;;4.57;1.92;;;1.00;99.90;;;;;;5018534;28;20478;-76
2022/03/01 03:55:54;;;;;;;4.18;1.90;;;1.00;99.90;;;;;;5021667;28;20017;-76
2022/03/01 03:58:19;;;;;;;4.43;1.95;;;1.10;99.90;;;;;;5019027;28;20033;-76
2022/03/01 04:00:45;;;;;;;3.60;1.67;;;1.00;99.90;;;;;;5021383;28;20041;-77
2022/03/01 04:03:11;;;;;;;4.80;1.92;;;0.90;99.90;;;;;;5017096;28;20124;-77
2022/03/01 04:05:37;;;;;;;4.72;1.92;;;0.90;99.90;;;;;;5036077;28;20041;-77
2022/03/01 04:08:02;;;;;;;5.75;2.17;;;0.90;99.90;;;;;;5019018;28;20034;-76
2022/03/01 04:10:28;;;;;;;5.13;2.33;;;0.90;99.90;;;;;;5020666;28;20509;-76
2022/03/01 04:12:54;;;;;;;5.30;1.80;;;0.90;99.90;;;;;;5020878;28;20029;-77
2022/03/01 04:15:19;;;;;;;6.72;2.05;;;1.00;99.90;;;;;;5003087;28;20037;-76
2022/03/01 04:17:45;;;;;;;5.10;1.73;;;1.10;99.90;;;;;;5019437;28;20091;-76
2022/03/01 04:20:11;;;;;;;4.47;1.77;;;1.10;99.90;;;;;;5035941;28;20045;-76
2022/03/01 04:22:37;;;;;;;3.45;1.75;;;1.10;99.90;;;;;;4997039;28;20030;-76
2022/03/01 04:25:06;;;;;;;3.65;1.45;;;1.20;99.90;;;;;;5020888;28;20056;-77
2022/03/01 04:27:31;;;;;;;4.45;1.98;;;1.20;99.90;;;;;;5018350;28;20030;-76
2022/03/01 04:29:57;;;;;;;4.00;2.03;;;1.20;99.90;;;;;;5026240;28;20474;-76
2022/03/01 04:32:22;;;;;;;3.78;1.73;;;1.30;99.90;;;;;;5025012;28;20029;-76
2022/03/01 04:34:48;;;;;;;5.53;2.13;;;1.30;99.90;;;;;;5026830;28;20083;-77
2022/03/01 04:37:14;;;;;;;4.25;1.65;;;1.30;99.90;;;;;;5020259;28;20036;-77
2022/03/01 04:39:40;;;;;;;4.35;1.92;;;1.40;99.90;;;;;;5018864;28;20033;-77
2022/03/01 04:42:06;;;;;;;3.90;1.50;;;1.40;99.90;;;;;;5020013;28;20772;-77
2022/03/01 04:44:33;;;;;;;5.22;1.77;;;1.50;99.90;;;;;;5021114;28;20033;-77
2022/03/01 04:47:00;;;;;;;4.43;1.75;;;1.50;99.90;;;;;;5020169;28;20072;-77
2022/03/01 04:49:27;;;;;;;3.65;1.65;;;1.50;99.90;;;;;;5020293;28;20025;-78
2022/03/01 04:51:53;;;;;;;3.80;1.80;;;1.50;99.90;;;;;;5013372;28;20038;-77
2022/03/01 04:54:18;;;;;;;3.97;1.92;;;1.60;99.90;;;;;;5019085;28;20067;-77
2022/03/01 04:56:44;;;;;;;3.58;1.63;;;1.50;99.90;;;;;;5020118;28;20037;-76
2022/03/01 04:59:09;;;;;;;4.03;1.63;;;1.50;99.90;;;;;;5019421;28;20081;-77
2022/03/01 05:01:36;;;;;;;5.55;2.20;;;1.50;99.90;;;;;;5018566;28;20033;-78
2022/03/01 05:04:02;;;;;;;4.22;1.75;;;1.50;99.90;;;;;;5020240;28;20037;-76
2022/03/01 05:06:27;;;;;;;4.03;1.42;;;1.40;99.90;;;;;;5024570;28;20091;-76
2022/03/01 05:08:53;;;;;;;4.05;2.00;;;1.40;99.90;;;;;;5019142;28;20749;-76
2022/03/01 05:11:18;;;;;;;4.07;1.88;;;1.30;99.90;;;;;;5034632;28;20068;-77
2022/03/01 05:13:44;;;;;;;4.45;1.90;;;1.30;99.90;;;;;;5002093;28;20029;-78
2022/03/01 05:16:09;;;;;;;3.58;1.33;;;1.40;99.90;;;;;;5018510;28;20479;-76
2022/03/01 05:18:35;;;;;;;3.50;1.85;;;1.40;99.90;;;;;;5020339;28;20128;-77
2022/03/01 05:21:00;;;;;;;4.30;1.92;;;1.40;99.90;;;;;;5019915;28;20154;-76
2022/03/01 05:23:27;;;;;;;4.55;1.58;;;1.40;99.90;;;;;;5033700;28;20026;-76
2022/03/01 05:25:53;;;;;;;5.22;2.17;;;1.50;99.90;;;;;;5016059;28;20487;-77
2022/03/01 05:28:19;;;;;;;5.43;1.98;;;1.50;99.90;;;;;;5019198;28;20025;-76
2022/03/01 05:30:45;;;;;;;3.80;1.58;;;1.50;99.90;;;;;;5020113;28;20044;-78
2022/03/01 05:33:11;;;;;;;4.97;2.50;;;1.60;99.90;;;;;;5019547;28;20052;-76
2022/03/01 05:35:37;;;;;;;5.38;2.38;;;1.70;99.90;;;;;;5018666;28;20033;-77
2022/03/01 05:38:03;;;;;;;4.53;2.17;;;1.70;99.90;;;;;;5019692;28;20366;-77
2022/03/01 05:40:31;;;;;;;6.25;1.92;;;1.60;99.90;;;;;;5018998;28;20037;-76
2022/03/01 05:42:58;;;;;;;6.43;2.58;;;1.70;99.90;;;;;;5019140;28;20033;-77
2022/03/01 05:45:25;;;;;;;6.00;2.50;;;1.70;99.90;;;;;;5018797;28;20037;-77
2022/03/01 05:47:52;;;;;;;4.18;1.83;;;1.70;99.90;;;;;;5019137;28;20029;-76
2022/03/01 05:50:18;;;;;;;5.55;1.67;;;1.60;99.90;;;;;;5018135;28;20140;-76
2022/03/01 05:52:44;;;;;;;3.75;1.70;;;1.60;99.90;;;;;;5019548;28;20215;-77
2022/03/01 05:55:11;;;;;;;4.70;2.30;;;1.60;99.90;;;;;;5016525;28;20029;-76
2022/03/01 05:57:38;;;;;;;2.70;1.38;;;1.50;99.90;;;;;;4996295;28;20088;-76
2022/03/01 06:00:06;;;;;;;4.55;2.03;;;1.40;99.90;;;;;;5019416;28;22262;-76
2022/03/01 06:02:38;;;;;;;3.90;1.98;;;1.40;99.90;;;;;;5016069;28;20036;-77
2022/03/01 06:05:04;;;;;;;4.95;1.92;;;1.30;99.90;;;;;;5017476;28;20044;-76
2022/03/01 06:07:30;;;;;;;4.95;2.45;;;1.30;99.90;;;;;;5019597;28;20017;-77
2022/03/01 06:09:55;;;;;;;5.10;2.10;;;1.30;99.90;;;;;;5033586;28;20494;-76
2022/03/01 06:12:21;;;;;;;4.05;1.67;;;1.30;99.90;;;;;;5011112;28;20069;-76
2022/03/01 06:14:46;;;;;;;3.63;1.80;;;1.30;99.90;;;;;;5019645;28;20017;-76
2022/03/01 06:17:12;;;;;;;3.20;1.23;;;1.30;99.90;;;;;;5019040;28;20112;-76
2022/03/01 06:19:38;;;;;;;5.47;1.40;;;1.30;99.90;;;;;;5016256;28;20030;-76
2022/03/01 06:22:05;;;;;;;4.55;1.77;;;1.40;99.90;;;;;;5022784;28;20524;-76
2022/03/01 06:24:31;;;;;;;4.50;1.83;;;1.50;99.90;;;;;;5017699;28;20436;-76
2022/03/01 06:26:58;;;;;;;4.60;2.22;;;1.50;99.90;;;;;;5018508;28;20615;-76
2022/03/01 06:29:24;;;;;;;5.72;2.83;;;1.60;99.90;;;;;;5018452;28;20025;-77
2022/03/01 06:31:49;;;;;;;5.20;2.42;;;1.60;99.90;;;;;;5017761;28;20441;-79
2022/03/01 06:34:16;;;;;;;6.82;2.78;;;1.60;99.90;;;;;;5017936;28;20028;-77
2022/03/01 06:36:41;;;;;;;6.03;2.60;;;1.70;99.90;;;;;;5017063;28;20047;-77
2022/03/01 06:39:07;;;;;;;4.80;1.92;;;1.80;99.90;;;;;;5022034;28;20398;-76
2022/03/01 06:41:32;;;;;;;4.72;2.25;;;1.80;99.90;;;;;;4998543;28;20053;-77
2022/03/01 06:43:58;;;;;;;5.82;2.40;;;1.80;99.90;;;;;;5020372;28;20025;-77
2022/03/01 06:46:25;;;;;;;6.18;2.70;;;1.90;99.90;;;;;;5020799;28;20057;-76
2022/03/01 06:48:50;;;;;;;4.78;2.00;;;1.90;99.90;;;;;;5002574;28;20025;-77
2022/03/01 06:51:16;;;;;;;5.10;2.05;;;1.90;99.90;;;;;;5018820;28;20588;-77
2022/03/01 06:53:44;;;;;;;6.30;2.75;;;1.90;99.90;;;;;;5015270;28;20125;-76
2022/03/01 06:56:12;;;;;;;5.47;2.92;;;2.00;99.90;;;;;;5019818;28;20026;-76
2022/03/01 06:58:38;;;;;;;4.90;2.60;;;2.10;99.90;;;;;;5018126;28;20049;-76
2022/03/01 07:01:04;;;;;;;6.32;3.20;;;2.10;99.90;;;;;;5021742;28;20543;-76
2022/03/01 07:03:29;;;;;;;5.55;1.95;;;2.20;99.90;;;;;;5017069;28;20227;-77
2022/03/01 07:05:55;;;;;;;4.47;2.22;;;2.20;99.90;;;;;;5020525;28;20041;-76
2022/03/01 07:08:22;;;;;;;6.00;3.00;;;2.30;99.90;;;;;;5015421;28;20037;-77
2022/03/01 07:10:49;;;;;;;3.67;2.38;;;2.30;99.90;;;;;;5017407;28;20397;-77
2022/03/01 07:13:15;;;;;;;6.32;2.90;;;2.40;99.90;;;;;;5017362;28;20033;-77
2022/03/01 07:15:40;;;;;;;3.72;2.28;;;2.30;99.90;;;;;;5017476;28;20025;-77
2022/03/01 07:18:06;;;;;;;4.35;2.05;;;2.30;99.90;;;;;;5021972;28;20037;-77
2022/03/01 07:20:34;;;;;;;4.30;1.50;;;2.30;99.90;;;;;;4981010;28;20079;-77
2022/03/01 07:23:00;;;;;;;5.53;2.10;;;2.30;99.90;;;;;;5017076;28;20458;-77
2022/03/01 07:25:26;;;;;;;5.93;3.10;;;2.40;99.90;;;;;;4999726;28;20039;-77
2022/03/01 07:27:54;;;;;;;5.85;2.60;;;2.50;99.90;;;;;;5017794;28;20037;-77
2022/03/01 07:30:26;;;;;;;4.68;2.45;;;2.60;99.90;;;;;;5017390;28;20021;-77
2022/03/01 07:32:56;;;;;;;4.97;2.30;;;2.60;99.90;;;;;;5011922;28;20116;-77
2022/03/01 07:35:23;;;;;;;5.20;2.65;;;2.70;99.90;;;;;;5018673;28;20037;-77
2022/03/01 07:37:49;;;;;;;3.95;1.98;;;2.80;99.90;;;;;;5016843;28;20044;-77
2022/03/01 07:40:16;;;;;;;4.15;2.13;;;2.90;99.90;;;;;;4997475;28;20132;-78
2022/03/01 07:42:43;;;;;;;4.72;2.55;;;3.00;99.90;;;;;;5010576;28;20073;-77
2022/03/01 07:45:10;;;;;;;5.95;3.30;;;3.00;99.90;;;;;;5014595;28;20041;-77
2022/03/01 07:47:35;;;;;;;6.50;3.38;;;3.10;99.90;;;;;;5016336;28;20052;-77
2022/03/01 07:50:02;;;;;;;6.07;2.92;;;3.20;99.90;;;;;;5033289;28;20033;-77
2022/03/01 07:52:27;;;;;;;5.22;2.58;;;3.20;99.90;;;;;;5017613;28;20032;-77
2022/03/01 07:54:53;;;;;;;5.57;2.90;;;3.30;99.90;;;;;;5033162;28;20045;-76
2022/03/01 07:57:19;;;;;;;11.02;6.13;;;3.40;99.90;;;;;;5019460;28;20040;-77
2022/03/01 07:59:45;;;;;;;7.15;4.05;;;3.50;99.90;;;;;;5015479;28;20041;-77
2022/03/01 08:02:11;;;;;;;7.93;3.58;;;3.60;99.90;;;;;;5017851;28;20121;-77
2022/03/01 08:04:37;;;;;;;5.63;3.20;;;3.60;99.90;;;;;;5015553;28;20033;-77
2022/03/01 08:07:03;;;;;;;4.88;2.90;;;3.70;99.90;;;;;;5019206;28;20040;-77
2022/03/01 08:09:29;;;;;;;6.65;3.05;;;3.80;99.90;;;;;;5018343;28;20029;-77
2022/03/01 08:11:55;;;;;;;5.03;2.72;;;3.80;99.90;;;;;;5001874;28;22360;-76
2022/03/01 08:14:20;;;;;;;5.32;2.60;;;3.80;99.90;;;;;;5013049;28;20033;-77
2022/03/01 08:16:46;;;;;;;5.72;2.88;;;3.90;99.90;;;;;;5017712;28;20485;-77
2022/03/01 08:19:12;;;;;;;6.00;2.28;;;4.00;99.90;;;;;;4988217;28;20065;-78
2022/03/01 08:21:37;;;;;;;6.55;3.08;;;4.00;99.90;;;;;;5014076;28;20033;-77
2022/03/01 08:24:03;;;;;;;4.82;3.08;;;4.10;99.90;;;;;;5017308;28;20099;-77
2022/03/01 08:26:29;;;;;;;4.90;2.78;;;4.00;99.90;;;;;;5016592;28;20040;-77
2022/03/01 08:28:54;;;;;;;4.68;2.70;;;4.00;99.90;;;;;;5014441;28;20025;-77
2022/03/01 08:31:20;;;;;;;4.43;2.65;;;4.00;99.90;;;;;;5015889;28;20559;-77
2022/03/01 08:33:46;;;;;;;6.65;3.50;;;4.00;99.90;;;;;;4999112;28;20029;-78
2022/03/01 08:36:13;;;;;;;6.20;3.35;;;4.00;99.90;;;;;;5031284;28;20501;-76
2022/03/01 08:38:40;;;;;;;5.47;2.92;;;4.00;99.90;;;;;;5032100;28;20033;-77
2022/03/01 08:41:06;;;;;;;4.90;2.65;;;4.00;99.90;;;;;;5016466;28;20052;-77
2022/03/01 08:43:31;;;;;;;6.63;3.50;;;4.00;99.90;;;;;;5031284;28;20033;-77
2022/03/01 08:45:57;;;;;;;5.88;3.55;;;4.10;99.90;;;;;;5015766;28;20064;-77
2022/03/01 08:48:25;;;;;;;4.00;2.42;;;4.20;99.90;;;;;;5015117;28;20079;-77
2022/03/01 08:50:52;;;;;;;6.22;2.67;;;4.30;99.90;;;;;;5016229;28;20261;-77
2022/03/01 08:53:19;;;;;;;5.47;2.95;;;4.50;99.90;;;;;;5021608;28;20473;-77
2022/03/01 08:55:45;;;;;;;4.25;2.65;;;4.60;99.90;;;;;;5031566;28;20064;-77
2022/03/01 08:58:11;;;;;;;5.55;3.13;;;4.70;99.90;;;;;;5015328;28;20098;-77
2022/03/01 09:00:37;;;;;;;6.00;3.00;;;4.80;99.90;;;;;;5017142;28;20405;-77
2022/03/01 09:03:04;;;;;;;4.97;2.38;;;4.90;99.90;;;;;;5031307;28;20029;-77
2022/03/01 09:05:29;;;;;;;5.80;3.42;;;4.90;99.90;;;;;;5031333;28;20486;-77
2022/03/01 09:07:55;;;;;;;4.80;2.08;;;4.90;99.90;;;;;;5018162;28;20039;-77
2022/03/01 09:10:23;;;;;;;5.18;3.13;;;4.90;99.90;;;;;;5018546;28;20033;-76
2022/03/01 09:12:53;;;;;;;4.40;2.58;;;4.90;99.90;;;;;;5017760;28;20053;-76
2022/03/01 09:15:21;;;;;;;6.05;3.33;;;4.90;99.90;;;;;;5015976;28;20080;-77
2022/03/01 09:17:47;;;;;;;5.80;3.40;;;5.00;99.90;;;;;;5016981;28;20136;-77
2022/03/01 09:20:13;;;;;;;3.53;1.70;;;5.00;99.90;;;;;;4965225;28;20054;-77
2022/03/01 09:22:39;;;;;;;3.58;1.92;;;5.10;99.90;;;;;;4975670;28;20582;-77
2022/03/01 09:25:06;;;;;;;5.68;3.22;;;5.10;99.90;;;;;;5011862;28;20026;-77
2022/03/01 09:27:32;;;;;;;7.22;3.83;;;5.10;99.90;;;;;;5014937;28;20041;-77
2022/03/01 09:29:57;;;;;;;8.32;4.70;;;5.20;99.90;;;;;;5013882;28;20099;-77
2022/03/01 09:32:25;;;;;;;7.40;4.68;;;5.20;99.90;;;;;;5030766;28;20036;-77
2022/03/01 09:34:51;;;;;;;7.80;4.47;;;5.20;99.90;;;;;;5005612;28;20140;-78
2022/03/01 09:37:31;;;;;;;6.00;3.45;;;5.40;99.90;;;;;;5015218;28;20385;-77
2022/03/01 09:39:57;;;;;;;;;;;5.60;99.90;;;;;;5015743;28;20138;-78
2022/03/01 09:42:24;;;;;;;5.18;2.58;;;5.80;99.90;;;;;;5015374;28;19947;-78
2022/03/01 09:44:51;;;;;;;3.53;2.00;;;6.10;99.90;;;;;;5012576;28;20178;-78
2022/03/01 09:47:17;;;;;;;5.85;3.67;;;6.30;99.90;;;;;;5015058;28;20045;-78
2022/03/01 09:49:42;;;;;;;4.90;3.03;;;6.50;99.90;;;;;;5029908;28;20084;-78
2022/03/01 09:52:08;;;;;;;5.95;3.10;;;6.60;99.90;;;;;;5014942;28;20470;-78
2022/03/01 09:54:34;;;;;;;6.68;2.72;;;6.70;99.90;;;;;;5010862;28;22057;-78
2022/03/01 09:56:59;;;;;;;8.38;4.63;;;7.00;99.90;;;;;;5014561;28;20049;-78
2022/03/01 09:59:25;;;;;;;6.40;4.90;;;7.10;99.90;;;;;;5011059;28;20501;-79
2022/03/01 10:01:53;;;;;;;7.28;4.55;;;6.90;99.90;;;;;;4998858;28;20662;-79
2022/03/01 10:04:19;;;;;;;8.30;4.60;;;6.90;99.90;;;;;;5015828;28;20029;-78
2022/03/01 10:06:48;;;;;;;7.47;5.00;;;6.80;99.90;;;;;;4998415;28;20327;-79
2022/03/01 10:09:18;;;;;;;5.93;3.90;;;6.80;99.90;;;;;;5016914;28;20079;-79
2022/03/01 10:11:44;;;;;;;12.15;5.30;;;6.60;99.90;;;;;;4999912;28;20034;-78
2022/03/01 10:14:10;;;;;;;7.88;4.97;;;6.40;99.90;;;;;;5018780;28;20069;-79
2022/03/01 10:16:46;;;;;;;8.10;5.25;;;6.40;99.90;;;;;;5032389;28;20049;-79
2022/03/01 10:19:17;;;;;;;7.75;5.25;;;6.60;99.90;;;;;;4984702;28;20099;-80
2022/03/01 10:21:47;;;;;;;7.15;3.92;;;6.90;99.90;;;;;;4991947;28;20049;-79
2022/03/01 10:24:15;;;;;;;6.53;4.32;;;7.30;99.90;;;;;;5019344;28;20079;-78
2022/03/01 10:26:43;;;;;;;6.22;3.85;;;7.50;99.90;;;;;;5011510;28;20047;-78
2022/03/01 10:29:09;;;;;;;8.00;4.57;;;7.40;99.90;;;;;;5015262;28;20461;-79
2022/03/01 10:31:34;;;;;;;8.23;5.03;;;7.40;99.90;;;;;;5014035;28;20061;-78
2022/03/01 10:34:11;;;;;;;7.18;4.80;;;7.20;99.90;;;;;;5009457;28;20026;-79
2022/03/01 10:36:47;;;;;;;6.43;4.07;;;7.40;99.90;;;;;;5014840;28;20403;-79
2022/03/01 10:39:19;;;;;;;6.13;3.00;;;7.40;99.90;;;;;;5016008;28;20034;-79
2022/03/01 10:41:50;;;;;;;6.28;3.72;;;7.30;99.90;;;;;;5012529;28;20037;-79
2022/03/01 10:44:21;;;;;;;5.72;3.53;;;7.40;99.90;;;;;;5013901;28;20109;-78
2022/03/01 10:46:57;;;;;;;5.88;4.00;;;7.30;99.90;;;;;;5029178;28;20095;-78
2022/03/01 10:49:25;;;;;;;9.07;4.85;;;7.10;99.90;;;;;;4990896;28;20060;-79
2022/03/01 10:51:52;;;;;;;6.53;3.65;;;7.20;99.90;;;;;;5013909;28;20517;-79
2022/03/01 10:54:35;;;;;;;5.72;2.70;;;7.30;99.90;;;;;;4998325;28;20034;-79
2022/03/01 10:57:02;;;;;;;;;;;7.60;99.90;;;;;;4992698;28;20643;-79
2022/03/01 10:59:31;;;;;;;7.82;4.30;;;7.60;99.90;;;;;;4996784;28;19921;-79
2022/03/01 11:01:57;;;;;;;6.07;3.55;;;7.80;99.90;;;;;;5013825;28;20033;-79
2022/03/01 11:04:25;;;;;;;5.65;3.72;;;8.30;99.90;;;;;;5013638;28;20048;-78
2022/03/01 11:06:53;;;;;;;8.48;4.80;;;8.40;99.90;;;;;;5015000;28;20042;-78
2022/03/01 11:09:21;;;;;;;6.60;4.20;;;8.50;99.90;;;;;;5014892;28;20033;-79
2022/03/01 11:11:48;;;;;;;6.53;3.60;;;8.50;99.90;;;;;;5014522;28;20069;-79
2022/03/01 11:14:18;;;;;;;8.82;4.18;;;8.60;99.90;;;;;;5013900;28;20439;-79
2022/03/01 11:17:02;;;;;;;6.85;4.55;;;8.50;99.90;;;;;;5015077;28;20060;-79
2022/03/01 11:19:54;;;;;;;7.45;4.70;;;8.50;99.90;;;;;;4968290;28;20041;-79
2022/03/01 11:22:26;;;;;;;7.22;3.50;;;8.70;99.90;;;;;;5007924;28;20036;-79
2022/03/01 11:24:52;;;;;;;7.68;4.85;;;8.80;99.90;;;;;;5015571;28;20602;-79
2022/03/01 11:27:20;;;;;;;7.10;4.50;;;8.60;99.90;;;;;;5018554;28;20059;-79
2022/03/01 11:29:46;;;;;;;5.95;4.05;;;8.80;99.90;;;;;;5017710;28;20037;-79
2022/03/01 11:32:20;;;;;;;5.85;3.80;;;8.80;99.90;;;;;;5034584;28;20032;-79
2022/03/01 11:34:46;;;;;;;4.72;3.00;;;8.90;99.90;;;;;;5018638;28;20040;-78
2022/03/01 11:37:14;;;;;;;6.28;4.10;;;8.90;99.90;;;;;;5025154;28;20040;-79
2022/03/01 11:39:40;;;;;;;4.32;2.83;;;9.00;99.90;;;;;;5019111;28;20075;-79
2022/03/01 11:42:17;;;;;;;6.35;3.60;;;9.10;99.90;;;;;;5034126;28;20116;-79
2022/03/01 11:44:53;;;;;;;3.47;1.83;;;9.00;99.90;;;;;;4976347;28;21369;-78
2022/03/01 11:47:33;;;;;;;6.78;4.75;;;9.20;99.90;;;;;;5024189;28;20153;-79
2022/03/01 11:50:13;;;;;;;6.90;3.60;;;9.00;99.90;;;;;;5012227;28;20025;-79
2022/03/01 11:53:09;;;;;;;5.50;3.63;;;9.40;99.90;;;;;;5016054;28;20029;-79
2022/03/01 11:55:43;;;;;;;5.10;3.33;;;9.30;99.90;;;;;;5001749;28;21700;-80
2022/03/01 11:58:11;;;;;;;4.35;2.55;;;9.30;99.90;;;;;;5023032;28;20449;-79
2022/03/01 12:00:39;;;;;;;7.80;4.40;;;9.50;99.90;;;;;;5016441;28;20409;-79
2022/03/01 12:03:09;;;;;;;5.45;3.40;;;9.20;99.90;;;;;;5016182;28;20427;-78
2022/03/01 12:05:35;;;;;;;7.03;3.10;;;9.10;99.90;;;;;;5012257;28;20120;-79
2022/03/01 12:08:05;;;;;;;4.82;2.85;;;9.00;99.90;;;;;;5030944;28;20029;-79
2022/03/01 12:10:31;;;;;;;4.57;2.17;;;9.20;99.90;;;;;;4999889;28;20560;-78
2022/03/01 12:12:57;;;;;;;5.88;3.17;;;9.40;99.90;;;;;;5014997;28;20041;-79
2022/03/01 12:15:34;;;;;;;4.55;2.90;;;9.00;99.90;;;;;;5013767;28;20128;-79
2022/03/01 12:18:12;;;;;;;4.78;2.65;;;9.20;99.90;;;;;;5016341;28;20078;-79
2022/03/01 12:20:46;;;;;;;6.05;3.60;;;9.30;99.90;;;;;;4978807;28;20057;-79
2022/03/01 12:23:27;;;;;;;5.80;4.10;;;9.00;99.90;;;;;;5009554;28;20473;-79
2022/03/01 12:25:53;;;;;;;5.38;3.80;;;8.90;99.90;;;;;;5016320;28;20104;-79
2022/03/01 12:28:20;;;;;;;5.38;3.08;;;9.10;99.90;;;;;;5017730;28;20087;-79
2022/03/01 12:30:46;;;;;;;5.53;3.38;;;9.10;99.90;;;;;;5017277;28;20470;-79
2022/03/01 12:33:17;;;;;;;6.93;4.35;;;9.20;99.90;;;;;;5016685;28;20074;-79
2022/03/01 12:35:54;;;;;;;6.63;3.53;;;9.00;99.90;;;;;;5016839;28;20426;-78
2022/03/01 12:38:20;;;;;;;6.63;3.08;;;9.30;99.90;;;;;;5002121;28;20397;-78
2022/03/01 12:40:46;;;;;;;5.35;3.08;;;9.50;99.90;;;;;;5017629;28;20638;-79
2022/03/01 12:43:13;;;;;;;7.57;3.33;;;9.50;99.90;;;;;;4994402;28;20106;-80
2022/03/01 12:45:44;;;;;;;7.13;5.63;;;9.50;99.90;;;;;;4995240;28;20686;-79
2022/03/01 12:48:14;;;;;;;6.43;4.47;;;9.40;99.90;;;;;;4998882;28;20379;-79
2022/03/01 12:50:48;;;;;;;5.03;2.95;;;9.50;99.90;;;;;;4995767;28;20032;-79
2022/03/01 12:53:15;;;;;;;6.32;3.53;;;9.70;99.90;;;;;;5010743;28;20035;-80
2022/03/01 12:55:42;;;;;;;5.55;3.78;;;9.70;99.90;;;;;;4996002;28;20065;-79
2022/03/01 12:58:27;;;;;;;5.85;3.53;;;9.70;99.90;;;;;;5031155;28;20916;-80
2022/03/01 13:01:04;;;;;;;5.75;3.72;;;9.90;99.90;;;;;;5013564;28;20511;-80